sensor_id;sensor_type;location;lat;lon;timestamp;pressure;altitude;pressure_sealevel;temperature;humidity
30873;BME280;17579;42.690;2.586;2023-03-19T00:01:41;97250.72;;;11.36;81.54
30873;BME280;17579;42.690;2.586;2023-03-19T00:04:07;97256.00;;;11.36;81.62
30873;BME280;17579;42.690;2.586;2023-03-19T00:06:32;97246.72;;;11.32;81.42
30873;BME280;17579;42.690;2.586;2023-03-19T00:08:58;97254.81;;;11.31;81.66
30873;BME280;17579;42.690;2.586;2023-03-19T00:11:24;97249.53;;;11.31;81.36
30873;BME280;17579;42.690;2.586;2023-03-19T00:13:50;97255.47;;;11.33;81.44
30873;BME280;17579;42.690;2.586;2023-03-19T00:16:15;97264.09;;;11.35;81.71
30873;BME280;17579;42.690;2.586;2023-03-19T00:18:41;97252.28;;;11.29;81.84
30873;BME280;17579;42.690;2.586;2023-03-19T00:21:07;97253.97;;;11.30;81.55
30873;BME280;17579;42.690;2.586;2023-03-19T00:23:33;97254.50;;;11.34;81.51
30873;BME280;17579;42.690;2.586;2023-03-19T00:25:59;97253.66;;;11.33;81.64
30873;BME280;17579;42.690;2.586;2023-03-19T00:28:24;97254.66;;;11.32;81.51
30873;BME280;17579;42.690;2.586;2023-03-19T00:30:51;97257.59;;;11.29;81.57
30873;BME280;17579;42.690;2.586;2023-03-19T00:33:17;97263.72;;;11.30;82.00
30873;BME280;17579;42.690;2.586;2023-03-19T00:35:42;97258.28;;;11.31;81.74
30873;BME280;17579;42.690;2.586;2023-03-19T00:38:08;97256.16;;;11.35;81.80
30873;BME280;17579;42.690;2.586;2023-03-19T00:40:34;97260.03;;;11.40;82.19
30873;BME280;17579;42.690;2.586;2023-03-19T00:43:00;97262.41;;;11.43;81.95
30873;BME280;17579;42.690;2.586;2023-03-19T00:45:25;97257.47;;;11.49;82.15
30873;BME280;17579;42.690;2.586;2023-03-19T00:47:51;97264.44;;;11.50;81.86
30873;BME280;17579;42.690;2.586;2023-03-19T00:50:17;97262.75;;;11.49;81.92
30873;BME280;17579;42.690;2.586;2023-03-19T00:52:42;97264.19;;;11.43;82.00
30873;BME280;17579;42.690;2.586;2023-03-19T00:55:08;97266.16;;;11.41;81.91
30873;BME280;17579;42.690;2.586;2023-03-19T00:57:34;97264.19;;;11.43;81.92
30873;BME280;17579;42.690;2.586;2023-03-19T00:59:59;97265.88;;;11.44;81.87
30873;BME280;17579;42.690;2.586;2023-03-19T01:02:25;97273.00;;;11.43;81.86
30873;BME280;17579;42.690;2.586;2023-03-19T01:04:51;97267.53;;;11.45;81.90
30873;BME280;17579;42.690;2.586;2023-03-19T01:07:16;97266.16;;;11.41;81.93
30873;BME280;17579;42.690;2.586;2023-03-19T01:09:42;97263.69;;;11.39;81.83
30873;BME280;17579;42.690;2.586;2023-03-19T01:12:08;97265.47;;;11.39;82.40
30873;BME280;17579;42.690;2.586;2023-03-19T01:14:34;97257.91;;;11.44;82.21
30873;BME280;17579;42.690;2.586;2023-03-19T01:16:59;97256.78;;;11.47;82.38
30873;BME280;17579;42.690;2.586;2023-03-19T01:19:25;97264.44;;;11.50;82.57
30873;BME280;17579;42.690;2.586;2023-03-19T01:21:51;97261.63;;;11.51;82.27
30873;BME280;17579;42.690;2.586;2023-03-19T01:24:17;97267.91;;;11.50;82.50
30873;BME280;17579;42.690;2.586;2023-03-19T01:26:43;97261.78;;;11.50;82.12
30873;BME280;17579;42.690;2.586;2023-03-19T01:29:08;97264.03;;;11.44;81.94
30873;BME280;17579;42.690;2.586;2023-03-19T01:31:35;97252.78;;;11.42;82.15
30873;BME280;17579;42.690;2.586;2023-03-19T01:34:01;97256.94;;;11.45;82.07
30873;BME280;17579;42.690;2.586;2023-03-19T01:36:27;97252.47;;;11.46;82.33
30873;BME280;17579;42.690;2.586;2023-03-19T01:38:54;97245.50;;;11.44;82.21
30873;BME280;17579;42.690;2.586;2023-03-19T01:41:21;97247.03;;;11.47;82.24
30873;BME280;17579;42.690;2.586;2023-03-19T01:43:48;97242.53;;;11.48;82.26
30873;BME280;17579;42.690;2.586;2023-03-19T01:46:36;97242.34;;;11.41;82.83
30873;BME280;17579;42.690;2.586;2023-03-19T01:49:06;97238.41;;;11.45;82.50
30873;BME280;17579;42.690;2.586;2023-03-19T01:51:36;97241.06;;;11.45;82.48
30873;BME280;17579;42.690;2.586;2023-03-19T01:54:05;97235.75;;;11.45;82.48
30873;BME280;17579;42.690;2.586;2023-03-19T01:56:34;97243.41;;;11.48;82.43
30873;BME280;17579;42.690;2.586;2023-03-19T01:59:02;97245.03;;;11.49;82.57
30873;BME280;17579;42.690;2.586;2023-03-19T02:01:31;97240.59;;;11.50;81.95
30873;BME280;17579;42.690;2.586;2023-03-19T02:03:58;97239.63;;;11.51;82.24
30873;BME280;17579;42.690;2.586;2023-03-19T02:06:24;97241.09;;;11.53;82.49
30873;BME280;17579;42.690;2.586;2023-03-19T02:08:51;97235.66;;;11.55;82.19
30873;BME280;17579;42.690;2.586;2023-03-19T02:11:18;97239.97;;;11.56;82.30
30873;BME280;17579;42.690;2.586;2023-03-19T02:13:44;97241.25;;;11.52;82.18
30873;BME280;17579;42.690;2.586;2023-03-19T02:16:11;97246.41;;;11.53;81.83
30873;BME280;17579;42.690;2.586;2023-03-19T02:18:37;97249.91;;;11.54;82.11
30873;BME280;17579;42.690;2.586;2023-03-19T02:21:06;97243.91;;;11.52;82.32
30873;BME280;17579;42.690;2.586;2023-03-19T02:26:02;97238.63;;;11.52;82.13
30873;BME280;17579;42.690;2.586;2023-03-19T02:28:31;97230.50;;;11.53;81.99
30873;BME280;17579;42.690;2.586;2023-03-19T02:30:57;97233.00;;;11.55;82.00
30873;BME280;17579;42.690;2.586;2023-03-19T02:33:23;97234.84;;;11.54;81.66
30873;BME280;17579;42.690;2.586;2023-03-19T02:35:50;97239.47;;;11.52;81.88
30873;BME280;17579;42.690;2.586;2023-03-19T02:38:16;97239.91;;;11.48;81.57
30873;BME280;17579;42.690;2.586;2023-03-19T02:40:48;97236.03;;;11.42;81.77
30873;BME280;17579;42.690;2.586;2023-03-19T02:43:16;97247.31;;;11.44;81.89
30873;BME280;17579;42.690;2.586;2023-03-19T02:45:41;97236.88;;;11.42;82.15
30873;BME280;17579;42.690;2.586;2023-03-19T02:48:07;97241.06;;;11.45;81.98
30873;BME280;17579;42.690;2.586;2023-03-19T02:50:33;97244.38;;;11.47;81.97
30873;BME280;17579;42.690;2.586;2023-03-19T02:52:58;97241.56;;;11.49;82.15
30873;BME280;17579;42.690;2.586;2023-03-19T02:55:24;97230.00;;;11.50;81.58
30873;BME280;17579;42.690;2.586;2023-03-19T02:57:49;97238.09;;;11.48;81.70
30873;BME280;17579;42.690;2.586;2023-03-19T03:00:15;97237.56;;;11.44;81.42
30873;BME280;17579;42.690;2.586;2023-03-19T03:02:43;97246.34;;;11.45;81.59
30873;BME280;17579;42.690;2.586;2023-03-19T03:05:09;97241.22;;;11.43;81.19
30873;BME280;17579;42.690;2.586;2023-03-19T03:07:35;97241.34;;;11.42;81.61
30873;BME280;17579;42.690;2.586;2023-03-19T03:10:00;97235.38;;;11.40;81.35
30873;BME280;17579;42.690;2.586;2023-03-19T03:12:26;97238.47;;;11.35;81.32
30873;BME280;17579;42.690;2.586;2023-03-19T03:14:52;97236.28;;;11.31;81.27
30873;BME280;17579;42.690;2.586;2023-03-19T03:17:17;97239.50;;;11.24;80.79
30873;BME280;17579;42.690;2.586;2023-03-19T03:19:43;97231.34;;;11.18;80.93
30873;BME280;17579;42.690;2.586;2023-03-19T03:22:09;97236.91;;;11.15;80.99
30873;BME280;17579;42.690;2.586;2023-03-19T03:24:35;97236.91;;;11.15;81.14
30873;BME280;17579;42.690;2.586;2023-03-19T03:27:01;97241.25;;;11.16;81.23
30873;BME280;17579;42.690;2.586;2023-03-19T03:29:26;97231.34;;;11.18;80.69
30873;BME280;17579;42.690;2.586;2023-03-19T03:31:52;97228.84;;;11.16;80.89
30873;BME280;17579;42.690;2.586;2023-03-19T03:34:18;97232.31;;;11.17;80.56
30873;BME280;17579;42.690;2.586;2023-03-19T03:36:43;97222.72;;;11.16;80.76
30873;BME280;17579;42.690;2.586;2023-03-19T03:39:11;97221.88;;;11.15;80.69
30873;BME280;17579;42.690;2.586;2023-03-19T03:41:38;97216.59;;;11.15;80.65
30873;BME280;17579;42.690;2.586;2023-03-19T03:44:03;97221.19;;;11.13;80.28
30873;BME280;17579;42.690;2.586;2023-03-19T03:46:29;97216.03;;;11.12;80.54
30873;BME280;17579;42.690;2.586;2023-03-19T03:48:55;97222.34;;;11.11;80.64
30873;BME280;17579;42.690;2.586;2023-03-19T03:51:21;97224.13;;;11.10;80.69
30873;BME280;17579;42.690;2.586;2023-03-19T03:53:46;97230.94;;;11.13;80.14
30873;BME280;17579;42.690;2.586;2023-03-19T03:56:12;97227.63;;;11.11;80.64
30873;BME280;17579;42.690;2.586;2023-03-19T03:58:38;97231.94;;;11.12;80.20
30873;BME280;17579;42.690;2.586;2023-03-19T04:01:05;97228.47;;;11.11;80.63
30873;BME280;17579;42.690;2.586;2023-03-19T04:03:32;97225.66;;;11.13;80.36
30873;BME280;17579;42.690;2.586;2023-03-19T04:05:58;97220.38;;;11.13;80.66
30873;BME280;17579;42.690;2.586;2023-03-19T04:08:23;97228.97;;;11.15;80.16
30873;BME280;17579;42.690;2.586;2023-03-19T04:10:49;97227.03;;;11.17;80.48
30873;BME280;17579;42.690;2.586;2023-03-19T04:13:15;97234.81;;;11.18;80.16
30873;BME280;17579;42.690;2.586;2023-03-19T04:15:42;97232.84;;;11.20;80.22
30873;BME280;17579;42.690;2.586;2023-03-19T04:18:07;97233.69;;;11.21;79.98
30873;BME280;17579;42.690;2.586;2023-03-19T04:20:33;97236.34;;;11.21;79.97
30873;BME280;17579;42.690;2.586;2023-03-19T04:22:59;97235.34;;;11.22;79.86
30873;BME280;17579;42.690;2.586;2023-03-19T04:25:26;97239.13;;;11.19;79.89
30873;BME280;17579;42.690;2.586;2023-03-19T04:27:51;97241.94;;;11.18;79.90
30873;BME280;17579;42.690;2.586;2023-03-19T04:30:17;97246.53;;;11.16;79.75
30873;BME280;17579;42.690;2.586;2023-03-19T04:32:45;97250.16;;;11.15;79.79
30873;BME280;17579;42.690;2.586;2023-03-19T04:35:11;97248.50;;;11.14;79.58
30873;BME280;17579;42.690;2.586;2023-03-19T04:37:37;97246.16;;;11.11;79.63
30873;BME280;17579;42.690;2.586;2023-03-19T04:40:03;97256.06;;;11.08;79.76
30873;BME280;17579;42.690;2.586;2023-03-19T04:42:30;97243.94;;;11.06;79.58
30873;BME280;17579;42.690;2.586;2023-03-19T04:44:55;97252.72;;;11.06;79.93
30873;BME280;17579;42.690;2.586;2023-03-19T04:47:21;97251.06;;;11.05;79.49
30873;BME280;17579;42.690;2.586;2023-03-19T04:49:47;97250.38;;;11.03;79.76
30873;BME280;17579;42.690;2.586;2023-03-19T04:52:13;97263.88;;;11.00;79.65
30873;BME280;17579;42.690;2.586;2023-03-19T04:54:39;97264.19;;;10.97;79.22
30873;BME280;17579;42.690;2.586;2023-03-19T04:57:05;97264.34;;;10.96;79.65
30873;BME280;17579;42.690;2.586;2023-03-19T04:59:31;97261.84;;;10.94;79.69
30873;BME280;17579;42.690;2.586;2023-03-19T05:01:56;97261.00;;;10.94;79.52
30873;BME280;17579;42.690;2.586;2023-03-19T05:04:22;97264.47;;;10.94;79.34
30873;BME280;17579;42.690;2.586;2023-03-19T05:06:48;97261.00;;;10.94;79.10
30873;BME280;17579;42.690;2.586;2023-03-19T05:09:14;97260.16;;;10.93;79.05
30873;BME280;17579;42.690;2.586;2023-03-19T05:11:40;97257.16;;;10.88;79.43
30873;BME280;17579;42.690;2.586;2023-03-19T05:14:06;97267.88;;;10.86;79.04
30873;BME280;17579;42.690;2.586;2023-03-19T05:16:33;97262.59;;;10.86;79.49
30873;BME280;17579;42.690;2.586;2023-03-19T05:18:59;97263.72;;;10.84;79.18
30873;BME280;17579;42.690;2.586;2023-03-19T05:21:25;97262.88;;;10.83;79.15
30873;BME280;17579;42.690;2.586;2023-03-19T05:23:51;97264.69;;;10.83;79.17
30873;BME280;17579;42.690;2.586;2023-03-19T05:26:19;97267.47;;;10.81;79.15
30873;BME280;17579;42.690;2.586;2023-03-19T05:28:45;97269.28;;;10.81;78.91
30873;BME280;17579;42.690;2.586;2023-03-19T05:31:11;97272.09;;;10.79;79.03
30873;BME280;17579;42.690;2.586;2023-03-19T05:33:37;97275.03;;;10.76;78.70
30873;BME280;17579;42.690;2.586;2023-03-19T05:36:03;97273.34;;;10.75;78.97
30873;BME280;17579;42.690;2.586;2023-03-19T05:38:28;97286.59;;;10.75;79.27
30873;BME280;17579;42.690;2.586;2023-03-19T05:40:54;97280.59;;;10.73;78.90
30873;BME280;17579;42.690;2.586;2023-03-19T05:43:20;97291.88;;;10.75;79.27
30873;BME280;17579;42.690;2.586;2023-03-19T05:45:50;97290.19;;;10.74;79.40
30873;BME280;17579;42.690;2.586;2023-03-19T05:48:17;97293.41;;;10.78;79.33
30873;BME280;17579;42.690;2.586;2023-03-19T05:50:42;97293.25;;;10.79;79.00
30873;BME280;17579;42.690;2.586;2023-03-19T05:53:08;97296.72;;;10.80;78.97
30873;BME280;17579;42.690;2.586;2023-03-19T05:55:34;97301.34;;;10.78;78.68
30873;BME280;17579;42.690;2.586;2023-03-19T05:57:59;97301.50;;;10.76;78.95
30873;BME280;17579;42.690;2.586;2023-03-19T06:00:26;97308.84;;;10.72;78.47
30873;BME280;17579;42.690;2.586;2023-03-19T06:02:52;97305.41;;;10.72;78.57
30873;BME280;17579;42.690;2.586;2023-03-19T06:05:19;97319.44;;;10.72;78.86
30873;BME280;17579;42.690;2.586;2023-03-19T06:07:45;97321.94;;;10.74;79.04
30873;BME280;17579;42.690;2.586;2023-03-19T06:10:11;97325.41;;;10.74;79.03
30873;BME280;17579;42.690;2.586;2023-03-19T06:12:37;97325.28;;;10.76;78.73
30873;BME280;17579;42.690;2.586;2023-03-19T06:15:03;97325.28;;;10.76;78.65
30873;BME280;17579;42.690;2.586;2023-03-19T06:17:28;97341.16;;;10.76;78.66
30873;BME280;17579;42.690;2.586;2023-03-19T06:19:55;97340.88;;;10.79;78.66
30873;BME280;17579;42.690;2.586;2023-03-19T06:22:20;97342.13;;;10.85;78.61
30873;BME280;17579;42.690;2.586;2023-03-19T06:24:46;97344.28;;;10.99;77.83
30873;BME280;17579;42.690;2.586;2023-03-19T06:27:11;97350.06;;;11.13;78.01
30873;BME280;17579;42.690;2.586;2023-03-19T06:29:37;97354.53;;;11.12;78.05
30873;BME280;17579;42.690;2.586;2023-03-19T06:32:03;97354.81;;;11.09;77.99
30873;BME280;17579;42.690;2.586;2023-03-19T06:34:29;97362.75;;;11.09;78.29
30873;BME280;17579;42.690;2.586;2023-03-19T06:36:55;97368.91;;;11.09;78.14
30873;BME280;17579;42.690;2.586;2023-03-19T06:39:21;97368.03;;;11.09;77.76
30873;BME280;17579;42.690;2.586;2023-03-19T06:41:50;97371.69;;;11.08;78.03
30873;BME280;17579;42.690;2.586;2023-03-19T06:44:16;97371.09;;;11.14;77.75
30873;BME280;17579;42.690;2.586;2023-03-19T06:46:41;97380.28;;;11.20;78.07
30873;BME280;17579;42.690;2.586;2023-03-19T06:49:07;97385.84;;;11.26;78.13
30873;BME280;17579;42.690;2.586;2023-03-19T06:51:33;97388.28;;;11.38;78.13
30873;BME280;17579;42.690;2.586;2023-03-19T06:53:58;97382.91;;;11.48;77.83
30873;BME280;17579;42.690;2.586;2023-03-19T06:56:24;97386.78;;;11.53;78.36
30873;BME280;17579;42.690;2.586;2023-03-19T06:58:50;97395.16;;;11.58;78.07
30873;BME280;17579;42.690;2.586;2023-03-19T07:01:16;97393.03;;;11.62;78.01
30873;BME280;17579;42.690;2.586;2023-03-19T07:03:41;97395.66;;;11.62;78.08
30873;BME280;17579;42.690;2.586;2023-03-19T07:06:07;97398.16;;;11.64;78.26
30873;BME280;17579;42.690;2.586;2023-03-19T07:08:33;97396.22;;;11.66;78.29
30873;BME280;17579;42.690;2.586;2023-03-19T07:11:08;97395.91;;;11.69;78.44
30873;BME280;17579;42.690;2.586;2023-03-19T07:13:33;97397.28;;;11.73;78.36
30873;BME280;17579;42.690;2.586;2023-03-19T07:15:59;97402.75;;;11.71;78.22
30873;BME280;17579;42.690;2.586;2023-03-19T07:18:25;97400.91;;;11.72;78.91
30873;BME280;17579;42.690;2.586;2023-03-19T07:20:51;97405.75;;;11.76;78.86
30873;BME280;17579;42.690;2.586;2023-03-19T07:23:18;97415.78;;;11.83;79.44
30873;BME280;17579;42.690;2.586;2023-03-19T07:25:43;97418.97;;;11.86;78.98
30873;BME280;17579;42.690;2.586;2023-03-19T07:28:10;97427.63;;;11.88;79.45
30873;BME280;17579;42.690;2.586;2023-03-19T07:30:35;97429.00;;;11.92;79.21
30873;BME280;17579;42.690;2.586;2023-03-19T07:33:03;97430.91;;;12.00;79.42
30873;BME280;17579;42.690;2.586;2023-03-19T07:35:29;97435.75;;;12.05;79.05
30873;BME280;17579;42.690;2.586;2023-03-19T07:37:54;97439.78;;;12.09;79.17
30873;BME280;17579;42.690;2.586;2023-03-19T07:40:20;97429.41;;;12.16;79.29
30873;BME280;17579;42.690;2.586;2023-03-19T07:42:45;97423.81;;;12.19;78.88
30873;BME280;17579;42.690;2.586;2023-03-19T07:45:11;97429.63;;;12.22;78.58
30873;BME280;17579;42.690;2.586;2023-03-19T07:47:37;97435.47;;;12.26;78.96
30873;BME280;17579;42.690;2.586;2023-03-19T07:50:04;97430.41;;;12.33;79.29
30873;BME280;17579;42.690;2.586;2023-03-19T07:52:30;97437.91;;;12.37;79.49
30873;BME280;17579;42.690;2.586;2023-03-19T07:54:56;97436.63;;;12.41;79.25
30873;BME280;17579;42.690;2.586;2023-03-19T07:57:22;97436.81;;;12.48;79.04
30873;BME280;17579;42.690;2.586;2023-03-19T07:59:49;97435.53;;;12.52;79.25
30873;BME280;17579;42.690;2.586;2023-03-19T08:02:16;97443.19;;;12.55;79.20
30873;BME280;17579;42.690;2.586;2023-03-19T08:04:42;97455.16;;;12.59;78.94
30873;BME280;17579;42.690;2.586;2023-03-19T08:07:08;97445.59;;;12.67;79.29
30873;BME280;17579;42.690;2.586;2023-03-19T08:09:35;97448.50;;;12.73;78.86
30873;BME280;17579;42.690;2.586;2023-03-19T08:12:02;97454.47;;;12.75;79.14
30873;BME280;17579;42.690;2.586;2023-03-19T08:14:27;97457.50;;;12.80;78.33
30873;BME280;17579;42.690;2.586;2023-03-19T08:16:53;97457.19;;;12.83;78.36
30873;BME280;17579;42.690;2.586;2023-03-19T08:19:18;97447.25;;;12.86;78.48
30873;BME280;17579;42.690;2.586;2023-03-19T08:21:44;97465.22;;;12.92;78.35
30873;BME280;17579;42.690;2.586;2023-03-19T08:24:10;97456.63;;;12.98;78.23
30873;BME280;17579;42.690;2.586;2023-03-19T08:26:35;97465.97;;;13.02;78.38
30873;BME280;17579;42.690;2.586;2023-03-19T08:29:02;97476.94;;;13.07;78.55
30873;BME280;17579;42.690;2.586;2023-03-19T08:31:28;97466.69;;;13.12;78.09
30873;BME280;17579;42.690;2.586;2023-03-19T08:33:57;97477.53;;;13.19;78.20
30873;BME280;17579;42.690;2.586;2023-03-19T08:36:27;97473.25;;;13.26;77.72
30873;BME280;17579;42.690;2.586;2023-03-19T08:38:52;97468.28;;;13.31;77.45
30873;BME280;17579;42.690;2.586;2023-03-19T08:41:20;97478.63;;;13.34;77.21
30873;BME280;17579;42.690;2.586;2023-03-19T08:43:46;97479.00;;;13.40;77.11
30873;BME280;17579;42.690;2.586;2023-03-19T08:46:11;97477.84;;;13.42;77.32
30873;BME280;17579;42.690;2.586;2023-03-19T08:48:37;97474.41;;;13.50;76.64
30873;BME280;17579;42.690;2.586;2023-03-19T08:51:04;97475.75;;;13.54;76.70
30873;BME280;17579;42.690;2.586;2023-03-19T08:53:30;97482.09;;;13.61;76.49
30873;BME280;17579;42.690;2.586;2023-03-19T08:55:59;97479.81;;;13.66;76.73
30873;BME280;17579;42.690;2.586;2023-03-19T08:58:26;97478.84;;;13.76;76.32
30873;BME280;17579;42.690;2.586;2023-03-19T09:00:52;97480.84;;;13.82;76.00
30873;BME280;17579;42.690;2.586;2023-03-19T09:03:19;97481.22;;;13.87;75.68
30873;BME280;17579;42.690;2.586;2023-03-19T09:05:46;97479.59;;;13.94;75.69
30873;BME280;17579;42.690;2.586;2023-03-19T09:08:12;97482.94;;;14.04;76.31
30873;BME280;17579;42.690;2.586;2023-03-19T09:10:38;97479.16;;;14.15;75.54
30873;BME280;17579;42.690;2.586;2023-03-19T09:13:04;97485.34;;;14.24;76.09
30873;BME280;17579;42.690;2.586;2023-03-19T09:15:30;97486.53;;;14.38;75.21
30873;BME280;17579;42.690;2.586;2023-03-19T09:17:56;97483.38;;;14.51;74.49
30873;BME280;17579;42.690;2.586;2023-03-19T09:20:21;97487.41;;;14.63;74.05
30873;BME280;17579;42.690;2.586;2023-03-19T09:22:47;97496.25;;;14.72;73.63
30873;BME280;17579;42.690;2.586;2023-03-19T09:25:13;97489.75;;;14.66;72.41
30873;BME280;17579;42.690;2.586;2023-03-19T09:27:38;97490.69;;;14.49;71.55
30873;BME280;17579;42.690;2.586;2023-03-19T09:30:05;97492.81;;;14.29;71.00
30873;BME280;17579;42.690;2.586;2023-03-19T09:32:34;97493.31;;;14.24;72.42
30873;BME280;17579;42.690;2.586;2023-03-19T09:35:00;97499.00;;;14.37;73.00
30873;BME280;17579;42.690;2.586;2023-03-19T09:37:25;97492.34;;;14.58;72.58
30873;BME280;17579;42.690;2.586;2023-03-19T09:39:51;97492.94;;;14.70;71.88
30873;BME280;17579;42.690;2.586;2023-03-19T09:44:43;97497.56;;;15.01;71.73
30873;BME280;17579;42.690;2.586;2023-03-19T09:47:28;97502.75;;;15.11;72.59
30873;BME280;17579;42.690;2.586;2023-03-19T09:49:58;97507.38;;;15.33;71.27
30873;BME280;17579;42.690;2.586;2023-03-19T09:52:30;97509.34;;;15.48;70.87
30873;BME280;17579;42.690;2.586;2023-03-19T09:57:28;97503.63;;;15.67;69.26
30873;BME280;17579;42.690;2.586;2023-03-19T09:59:54;97500.94;;;15.75;69.37
30873;BME280;17579;42.690;2.586;2023-03-19T10:02:36;97499.94;;;15.85;69.73
30873;BME280;17579;42.690;2.586;2023-03-19T10:05:20;97500.53;;;16.03;68.11
30873;BME280;17579;42.690;2.586;2023-03-19T10:07:53;97492.47;;;16.11;67.42
30873;BME280;17579;42.690;2.586;2023-03-19T10:12:53;97496.97;;;16.19;66.17
30873;BME280;17579;42.690;2.586;2023-03-19T10:15:24;97491.75;;;16.26;65.69
30873;BME280;17579;42.690;2.586;2023-03-19T10:17:56;97491.22;;;16.31;65.23
30873;BME280;17579;42.690;2.586;2023-03-19T10:20:29;97493.00;;;16.38;65.41
30873;BME280;17579;42.690;2.586;2023-03-19T10:25:42;97501.53;;;16.65;63.02
30873;BME280;17579;42.690;2.586;2023-03-19T10:28:14;97490.31;;;16.70;63.67
30873;BME280;17579;42.690;2.586;2023-03-19T10:30:41;97501.75;;;16.78;61.65
30873;BME280;17579;42.690;2.586;2023-03-19T10:33:13;97501.94;;;16.77;61.27
30873;BME280;17579;42.690;2.586;2023-03-19T10:35:44;97491.44;;;16.75;61.23
30873;BME280;17579;42.690;2.586;2023-03-19T10:38:19;97497.06;;;16.80;61.58
30873;BME280;17579;42.690;2.586;2023-03-19T10:41:04;97501.03;;;16.85;62.81
30873;BME280;17579;42.690;2.586;2023-03-19T10:43:38;97494.13;;;16.99;61.39
30873;BME280;17579;42.690;2.586;2023-03-19T10:46:04;97491.56;;;17.05;61.37
30873;BME280;17579;42.690;2.586;2023-03-19T10:48:30;97485.31;;;17.13;61.34
30873;BME280;17579;42.690;2.586;2023-03-19T10:50:59;97489.91;;;17.19;60.03
30873;BME280;17579;42.690;2.586;2023-03-19T10:53:28;97478.69;;;17.24;60.19
30873;BME280;17579;42.690;2.586;2023-03-19T10:56:00;97478.16;;;17.28;60.59
30873;BME280;17579;42.690;2.586;2023-03-19T10:58:29;97477.72;;;17.40;59.15
30873;BME280;17579;42.690;2.586;2023-03-19T11:00:58;97470.03;;;17.37;59.16
30873;BME280;17579;42.690;2.586;2023-03-19T11:08:53;97459.56;;;17.50;57.78
30873;BME280;17579;42.690;2.586;2023-03-19T11:11:21;97466.72;;;17.49;57.33
30873;BME280;17579;42.690;2.586;2023-03-19T11:13:48;97477.03;;;17.53;56.58
30873;BME280;17579;42.690;2.586;2023-03-19T11:16:14;97471.16;;;17.57;56.02
30873;BME280;17579;42.690;2.586;2023-03-19T11:18:40;97468.38;;;17.65;56.97
30873;BME280;17579;42.690;2.586;2023-03-19T11:21:20;97469.97;;;17.75;56.34
30873;BME280;17579;42.690;2.586;2023-03-19T11:23:51;97461.56;;;17.78;56.16
30873;BME280;17579;42.690;2.586;2023-03-19T11:26:18;97448.47;;;17.83;55.68
30873;BME280;17579;42.690;2.586;2023-03-19T11:28:50;97455.66;;;17.82;56.22
30873;BME280;17579;42.690;2.586;2023-03-19T11:41:43;97451.97;;;17.83;54.58
30873;BME280;17579;42.690;2.586;2023-03-19T11:47:06;97445.84;;;17.90;54.03
30873;BME280;17579;42.690;2.586;2023-03-19T11:49:40;97452.63;;;18.00;54.17
30873;BME280;17579;42.690;2.586;2023-03-19T11:52:14;97444.03;;;18.05;54.77
30873;BME280;17579;42.690;2.586;2023-03-19T11:54:45;97447.16;;;18.09;54.35
30873;BME280;17579;42.690;2.586;2023-03-19T12:00:00;97455.84;;;17.66;53.91
30873;BME280;17579;42.690;2.586;2023-03-19T12:07:51;97467.53;;;17.05;54.97
30873;BME280;17579;42.690;2.586;2023-03-19T12:10:39;97470.53;;;16.79;56.21
30873;BME280;17579;42.690;2.586;2023-03-19T12:13:36;97472.44;;;16.70;56.35
30873;BME280;17579;42.690;2.586;2023-03-19T12:16:13;97474.47;;;16.68;56.41
30873;BME280;17579;42.690;2.586;2023-03-19T12:22:00;97464.78;;;16.67;57.38
30873;BME280;17579;42.690;2.586;2023-03-19T12:33:03;97437.31;;;17.35;55.66
30873;BME280;17579;42.690;2.586;2023-03-19T12:35:24;97432.16;;;17.48;55.98
30873;BME280;17579;42.690;2.586;2023-03-19T12:38:00;97430.66;;;17.75;56.36
30873;BME280;17579;42.690;2.586;2023-03-19T12:40:34;97430.19;;;18.02;55.78
30873;BME280;17579;42.690;2.586;2023-03-19T12:43:09;97430.03;;;18.25;55.66
30873;BME280;17579;42.690;2.586;2023-03-19T12:45:42;97418.19;;;18.34;53.57
30873;BME280;17579;42.690;2.586;2023-03-19T12:48:12;97415.97;;;18.38;52.42
30873;BME280;17579;42.690;2.586;2023-03-19T12:50:43;97409.75;;;18.37;51.88
30873;BME280;17579;42.690;2.586;2023-03-19T12:53:34;97408.28;;;18.34;52.67
30873;BME280;17579;42.690;2.586;2023-03-19T12:56:08;97405.69;;;18.41;51.97
30873;BME280;17579;42.690;2.586;2023-03-19T13:01:12;97397.66;;;18.41;50.69
30873;BME280;17579;42.690;2.586;2023-03-19T13:03:42;97396.63;;;18.42;51.69
30873;BME280;17579;42.690;2.586;2023-03-19T13:08:44;97386.44;;;18.52;52.45
30873;BME280;17579;42.690;2.586;2023-03-19T13:11:16;97379.53;;;18.65;51.63
30873;BME280;17579;42.690;2.586;2023-03-19T13:13:52;97382.84;;;18.67;52.44
30873;BME280;17579;42.690;2.586;2023-03-19T13:19:02;97376.50;;;18.46;50.75
30873;BME280;17579;42.690;2.586;2023-03-19T13:21:33;97388.72;;;18.56;50.99
30873;BME280;17579;42.690;2.586;2023-03-19T13:24:22;97385.84;;;18.57;51.10
30873;BME280;17579;42.690;2.586;2023-03-19T13:26:50;97369.63;;;18.65;49.50
30873;BME280;17579;42.690;2.586;2023-03-19T13:29:19;97377.88;;;18.64;49.99
30873;BME280;17579;42.690;2.586;2023-03-19T13:31:45;97385.38;;;18.75;50.50
30873;BME280;17579;42.690;2.586;2023-03-19T13:34:33;97378.81;;;18.78;50.68
30873;BME280;17579;42.690;2.586;2023-03-19T13:37:05;97380.34;;;18.87;49.61
30873;BME280;17579;42.690;2.586;2023-03-19T13:39:36;97377.94;;;18.99;49.60
30873;BME280;17579;42.690;2.586;2023-03-19T13:44:38;97377.72;;;19.29;47.96
30873;BME280;17579;42.690;2.586;2023-03-19T13:49:33;97366.94;;;19.64;46.88
30873;BME280;17579;42.690;2.586;2023-03-19T13:52:09;97378.25;;;19.87;47.46
30873;BME280;17579;42.690;2.586;2023-03-19T13:54:51;97378.06;;;20.02;46.54
30873;BME280;17579;42.690;2.586;2023-03-19T13:57:19;97365.91;;;20.20;45.35
30873;BME280;17579;42.690;2.586;2023-03-19T13:59:48;97369.47;;;20.40;45.30
30873;BME280;17579;42.690;2.586;2023-03-19T14:02:43;97361.44;;;20.60;46.35
30873;BME280;17579;42.690;2.586;2023-03-19T14:07:39;97350.22;;;21.31;44.05
30873;BME280;17579;42.690;2.586;2023-03-19T14:10:14;97359.97;;;21.05;44.01